GW1419 Weather Reports


time (UTC)temp
C
wind
direction
speed
KPH
gust
KPH
rain 1hr
cm
rain 24hr
cm
rain mn
cm
humidity
%
barometer
mb
20260510203037 23 360 12.9 22.5 0.00 0.00 0.00 59 1016.2
20260510201526 23 10 12.9 20.9 0.00 0.00 0.00 58 1016.4
20260510200025 24 5 16.1 24.1 0.00 0.00 0.00 57 1016.5
20260510194522 25 18 16.1 25.7 0.00 0.00 0.00 59 1016.3
20260510193021 24 360 16.1 22.5 0.00 0.00 0.00 62 1016.1
20260510191522 24 355 14.5 20.9 0.00 0.00 0.00 62 1016.1
20260510190019 24 5 16.1 20.9 0.00 0.00 0.00 63 1016.3
20260510184518 24 5 11.3 19.3 0.00 0.00 0.00 66 1016.2
20260510183031 25 5 16.1 20.9 0.00 0.00 0.00 64 1016.1
20260510181515 25 40 6.4 9.7 0.00 0.00 0.00 63 1016.1
20260510180012 25 15 11.3 14.5 0.00 0.00 0.00 63 1016.0
20260510174513 25 49 4.8 16.1 0.00 0.00 0.00 64 1015.8
20260510173008 25 30 11.3 22.5 0.00 0.00 0.00 62 1015.7
20260510171507 25 15 8.0 19.3 0.00 0.00 0.00 62 1015.8
20260510170003 25 98 6.4 17.7 0.00 0.00 0.00 66 1015.9
20260510164607 23 5 8.0 14.5 0.00 0.00 0.00 67 1016.1
20260510163056 23 13 4.8 11.3 0.00 0.00 0.00 68 1016.1
20260510161555 23 11 6.4 12.9 0.00 0.00 0.00 67 1016.2
20260510160100 23 9 3.2 8.0 0.00 0.00 0.00 68 1016.0
20260510154603 22 11 8.0 12.9 0.00 0.00 0.00 67 1015.8
20260510153051 22 30 3.2 6.4 0.00 0.00 0.00 68 1015.8
20260510151547 22 38 0.0 3.2 0.00 0.00 0.00 72 1015.7
20260510150043 22 59 0.0 3.2 0.00 0.00 0.00 74 1015.4
20260510144538 21 78 0.0 3.2 0.00 0.00 0.00 76 1015.3
20260510143040 20 136 1.6 4.8 0.00 0.00 0.00 77 1015.2
20260510141533 20 136 4.8 8.0 0.00 0.00 0.00 80 1015.0
20260510140028 19 140 4.8 8.0 0.00 0.00 0.00 85 1014.9
20260510134524 18 229 0.0 3.2 0.00 0.00 0.00 89 1014.9
20260510133021 17 182 0.0 1.6 0.00 0.00 0.00 90 1014.8
20260510131520 16 190 0.0 3.2 0.00 0.00 0.00 91 1014.9
20260510130027 16 263 0.0 1.6 0.00 0.00 0.00 93 1014.6
20260510124518 15 311 0.0 3.2 0.00 0.00 0.00 92 1014.8
20260510123017 15 148 1.6 3.2 0.00 0.00 0.00 92 1014.6
20260510121517 14 92 0.0 3.2 0.00 0.00 0.00 92 1014.5
20260510120015 14 130 0.0 0.0 0.00 0.00 0.00 92 1014.6
20260510114515 14 57 0.0 0.0 0.00 0.00 0.00 92 1014.6
20260510113020 13 351 0.0 3.2 0.00 0.00 0.00 92 1014.7
20260510111513 13 315 0.0 0.0 0.00 0.00 0.00 92 1014.2
20260510110011 13 210 0.0 4.8 0.00 0.00 0.00 92 1014.0
20260510104508 13 126 0.0 3.2 0.00 0.00 0.00 91 1013.2
20260510103002 13 126 0.0 1.6 0.00 0.00 0.00 90 1012.9
20260510101500 13 126 0.0 3.2 0.00 0.00 0.00 90 1012.7
20260510100109 13 126 1.6 3.2 0.00 0.00 0.00 90 1012.8
20260510094558 13 126 0.0 3.2 0.00 0.00 0.00 90 1012.7
20260510093058 13 126 0.0 1.6 0.00 0.00 0.00 89 1012.6
20260510091602 13 126 1.6 4.8 0.00 0.00 0.00 89 1012.5
20260510090107 13 126 0.0 3.2 0.00 0.00 0.00 89 1012.4
20260510084600 13 126 1.6 3.2 0.00 0.00 0.00 89 1012.1
20260510083055 13 126 1.6 3.2 0.00 0.00 0.00 88 1011.9
20260510081552 13 126 0.0 3.2 0.00 0.00 0.00 88 1011.9
20260510080101 13 126 1.6 3.2 0.00 0.00 0.00 87 1011.9
20260510074548 13 126 1.6 3.2 0.00 0.00 0.00 87 1011.8
20260510073046 14 126 1.6 3.2 0.00 0.00 0.00 86 1011.8
20260510071546 14 126 0.0 3.2 0.00 0.00 0.00 86 1011.9
20260510070145 14 126 0.0 3.2 0.00 0.00 0.00 86 1012.0
20260510064558 15 126 0.0 3.2 0.00 0.00 0.00 85 1011.9
20260510063045 15 126 1.6 3.2 0.00 0.00 0.00 84 1012.1
20260510061545 15 126 1.6 3.2 0.00 0.00 0.00 81 1012.4
20260510060039 16 126 0.0 0.0 0.00 0.00 0.00 81 1012.1
20260510054531 16 126 0.0 0.0 0.00 0.00 0.00 78 1012.2
20260510053028 17 126 0.0 0.0 0.00 0.00 0.00 78 1012.0
20260510051526 17 126 0.0 0.0 0.00 0.00 0.00 76 1011.8
20260510050029 17 126 0.0 0.0 0.00 0.00 0.00 76 1011.6
20260510044519 17 126 0.0 0.0 0.00 0.00 0.00 74 1011.5
20260510043019 17 126 0.0 0.0 0.00 0.00 0.00 75 1011.3
20260510041518 18 126 0.0 3.2 0.00 0.00 0.00 74 1011.3
20260510040018 18 126 0.0 3.2 0.00 0.00 0.00 73 1011.3
20260510034516 17 126 1.6 4.8 0.00 0.00 0.00 73 1011.2
20260510033016 17 126 3.2 6.4 0.00 0.00 0.00 73 1011.2
20260510031515 18 126 3.2 6.4 0.00 0.00 0.00 72 1011.2
20260510030013 18 126 1.6 4.8 0.00 0.00 0.00 71 1011.0
20260510024512 18 126 3.2 6.4 0.00 0.00 0.00 71 1011.0
20260510023011 18 123 3.2 6.4 0.00 0.00 0.00 70 1010.8
20260510021513 18 121 6.4 9.7 0.00 0.00 0.00 68 1010.5
20260510020010 20 89 3.2 6.4 0.00 0.00 0.00 68 1010.5
20260510014512 20 89 3.2 6.4 0.00 0.00 0.00 67 1010.3
20260510013010 20 88 3.2 9.7 0.00 0.00 0.00 67 1010.1
20260510011507 21 156 4.8 8.0 0.00 0.00 0.00 65 1009.9
20260510010007 21 150 4.8 6.4 0.00 0.00 0.00 64 1009.6
20260510004506 22 110 4.8 9.7 0.00 0.00 0.00 62 1009.5
20260510003007 24 101 3.2 9.7 0.00 0.00 0.00 60 1009.4
20260510001507 26 20 3.2 4.8 0.00 0.00 0.00 52 1009.2
20260510000004 26 170 1.6 4.8 0.00 0.00 0.00 44 1009.3
20260509234512 27 140 1.6 6.4 0.00 0.00 0.00 42 1009.2
20260509233008 27 138 4.8 8.0 0.00 0.00 0.00 36 1009.2
20260509231503 28 138 3.2 11.3 0.00 0.00 0.00 38 1009.1
20260509230002 28 167 6.4 12.9 0.00 0.00 0.00 34 1009.1
20260509224501 28 160 3.2 12.9 0.00 0.00 0.00 34 1008.9
20260509223001 28 142 8.0 12.9 0.00 0.00 0.00 31 1008.9
20260509221601 28 134 8.0 16.1 0.00 0.00 0.00 31 1008.8
20260509221502 28 132 8.0 16.1 0.00 0.00 0.00 34 1008.8
20260509214600 29 137 4.8 11.3 0.00 0.00 0.00 29 1009.1
20260509213058 29 138 1.6 11.3 0.00 0.00 0.00 29 1009.2
20260509211602 29 148 3.2 9.7 0.00 0.00 0.00 28 1009.2
20260509210108 30 175 3.2 6.4 0.00 0.00 0.00 30 1009.3
20260509204553 30 200 0.0 6.4 0.00 0.00 0.00 32 1009.3